createdAt,value
2019-06-20T00:00:17.712Z,5.10
2019-06-20T00:00:57.752Z,5.40
2019-06-20T00:01:17.717Z,4.80
2019-06-20T00:02:17.727Z,4.90
2019-06-20T00:03:17.885Z,5.00
2019-06-20T00:03:26.618Z,6.30
2019-06-20T00:04:17.767Z,5.10
2019-06-20T00:05:17.787Z,4.80
2019-06-20T00:05:55.735Z,4.83
2019-06-20T00:06:17.804Z,4.50
2019-06-20T00:07:17.825Z,4.20
2019-06-20T00:08:17.845Z,4.50
2019-06-20T00:08:24.729Z,5.50
2019-06-20T00:09:17.877Z,4.90
2019-06-20T00:10:17.897Z,4.60
2019-06-20T00:10:53.563Z,5.00
2019-06-20T00:11:17.905Z,4.80
2019-06-20T00:12:18.045Z,4.80
2019-06-20T00:13:17.946Z,5.10
2019-06-20T00:13:22.489Z,5.03
2019-06-20T00:14:17.965Z,4.70
2019-06-20T00:15:17.981Z,4.90
2019-06-20T00:15:51.395Z,6.80
2019-06-20T00:16:18.004Z,4.90
2019-06-20T00:17:18.025Z,6.40
2019-06-20T00:18:18.039Z,6.10
2019-06-20T00:18:20.368Z,7.33
2019-06-20T00:19:18.061Z,6.50
2019-06-20T00:20:18.094Z,5.70
2019-06-20T00:20:49.368Z,6.70
2019-06-20T00:21:18.101Z,5.90
2019-06-20T00:22:18.120Z,6.20
2019-06-20T00:23:18.139Z,5.90
2019-06-20T00:23:18.258Z,6.30
2019-06-20T00:24:18.159Z,5.50
2019-06-20T00:25:18.180Z,6.40
2019-06-20T00:25:47.148Z,7.83
2019-06-20T00:26:18.200Z,6.00
2019-06-20T00:27:18.217Z,6.60
2019-06-20T00:28:15.962Z,4.90
2019-06-20T00:28:18.246Z,5.20
2019-06-20T00:29:18.268Z,4.80
2019-06-20T00:30:18.282Z,5.40
2019-06-20T00:30:44.921Z,5.63
2019-06-20T00:31:18.297Z,5.00
2019-06-20T00:32:18.338Z,5.00
2019-06-20T00:33:13.765Z,5.57
2019-06-20T00:33:18.339Z,5.10
2019-06-20T00:34:18.361Z,6.10
2019-06-20T00:35:18.381Z,5.80
2019-06-20T00:35:42.668Z,6.40
2019-06-20T00:36:18.394Z,5.30
2019-06-20T00:37:18.422Z,5.50
2019-06-20T00:38:11.597Z,6.60
2019-06-20T00:38:18.438Z,5.40
2019-06-20T00:39:18.464Z,5.90
2019-06-20T00:40:18.494Z,5.50
2019-06-20T00:40:40.584Z,6.07
2019-06-20T00:41:18.492Z,5.40
2019-06-20T00:42:18.514Z,5.60
2019-06-20T00:43:17.463Z,5.40
2019-06-20T00:43:18.583Z,5.60
2019-06-20T00:44:18.688Z,5.10
2019-06-20T00:45:18.583Z,4.80
2019-06-20T00:45:39.998Z,6.37
2019-06-20T00:46:18.599Z,5.90
2019-06-20T00:47:18.617Z,5.30
2019-06-20T00:48:08.908Z,6.30
2019-06-20T00:48:18.638Z,5.10
2019-06-20T00:49:18.656Z,5.10
2019-06-20T00:50:18.741Z,5.10
2019-06-20T00:50:37.779Z,5.57
2019-06-20T00:51:18.690Z,5.00
2019-06-20T00:52:18.713Z,5.20
2019-06-20T00:53:06.891Z,5.83
2019-06-20T00:53:18.827Z,5.20
2019-06-20T00:54:18.752Z,4.80
2019-06-20T00:55:18.858Z,4.90
2019-06-20T00:55:35.758Z,5.70
2019-06-20T00:56:18.805Z,5.00
2019-06-20T00:57:18.807Z,5.20
2019-06-20T00:58:04.670Z,5.30
2019-06-20T00:58:18.843Z,5.50
2019-06-20T00:59:18.855Z,4.80
2019-06-20T01:00:18.868Z,4.30
2019-06-20T01:00:33.565Z,5.67
2019-06-20T01:01:18.889Z,5.20
2019-06-20T01:02:18.908Z,4.70
2019-06-20T01:03:02.587Z,5.30
2019-06-20T01:03:18.927Z,4.50
2019-06-20T01:04:18.951Z,4.70
2019-06-20T01:05:18.972Z,5.30
2019-06-20T01:05:31.567Z,5.40
2019-06-20T01:06:18.990Z,5.20
2019-06-20T01:07:19.005Z,5.30
2019-06-20T01:08:00.521Z,5.67
2019-06-20T01:08:19.027Z,4.70
2019-06-20T01:09:19.044Z,4.60
2019-06-20T01:10:19.063Z,4.90
2019-06-20T01:10:29.507Z,5.67
2019-06-20T01:11:19.085Z,5.20
2019-06-20T01:12:19.102Z,5.20
2019-06-20T01:12:58.398Z,5.80
2019-06-20T01:13:32.635Z,5.30
2019-06-20T01:14:19.142Z,5.30
2019-06-20T01:15:19.163Z,4.80
2019-06-20T01:15:27.292Z,5.63
2019-06-20T01:16:19.183Z,5.00
2019-06-20T01:17:19.334Z,4.70
2019-06-20T01:17:56.184Z,6.07
2019-06-20T01:18:19.226Z,4.80
2019-06-20T01:19:19.247Z,5.40
2019-06-20T01:20:19.259Z,5.00
2019-06-20T01:20:25.086Z,5.20
2019-06-20T01:21:19.280Z,5.00
2019-06-20T01:22:19.299Z,4.90
2019-06-20T01:22:53.963Z,5.30
2019-06-20T01:23:19.318Z,4.80
2019-06-20T01:24:19.338Z,4.90
2019-06-20T01:25:19.361Z,4.60
2019-06-20T01:25:35.850Z,5.70
2019-06-20T01:26:19.383Z,5.30
2019-06-20T01:27:19.402Z,5.10
2019-06-20T01:28:04.951Z,5.97
2019-06-20T01:28:19.418Z,5.00
2019-06-20T01:29:19.434Z,4.90
2019-06-20T01:30:19.463Z,5.20
2019-06-20T01:30:33.834Z,5.67
2019-06-20T01:31:19.480Z,5.50
2019-06-20T01:32:19.494Z,5.30
2019-06-20T01:33:02.726Z,5.90
2019-06-20T01:33:19.515Z,5.40
2019-06-20T01:34:19.536Z,5.00
2019-06-20T01:35:19.561Z,5.50
2019-06-20T01:35:31.637Z,5.93
2019-06-20T01:36:19.583Z,5.30
2019-06-20T01:37:19.593Z,5.20
2019-06-20T01:38:00.504Z,6.17
2019-06-20T01:38:19.687Z,5.30
2019-06-20T01:39:19.638Z,5.50
2019-06-20T01:40:19.662Z,5.90
2019-06-20T01:40:29.499Z,6.43
2019-06-20T01:41:19.675Z,5.80
2019-06-20T01:42:19.730Z,5.20
2019-06-20T01:42:58.597Z,6.63
2019-06-20T01:43:19.710Z,5.60
2019-06-20T01:44:19.767Z,5.40
2019-06-20T01:45:19.750Z,5.00
2019-06-20T01:45:27.595Z,6.00
2019-06-20T01:46:19.771Z,5.40
2019-06-20T01:47:19.798Z,5.40
2019-06-20T01:47:56.594Z,6.17
2019-06-20T01:48:19.809Z,5.10
2019-06-20T01:49:19.840Z,5.10
2019-06-20T01:50:19.898Z,5.50
2019-06-20T01:50:25.594Z,6.10
2019-06-20T01:51:19.873Z,5.10
2019-06-20T01:52:19.925Z,5.50
2019-06-20T01:52:54.761Z,5.97
2019-06-20T01:53:19.914Z,4.80
2019-06-20T01:54:19.971Z,5.20
2019-06-20T01:55:19.981Z,4.90
2019-06-20T01:55:23.765Z,5.47
2019-06-20T01:56:19.971Z,5.20
2019-06-20T01:57:19.985Z,5.30
2019-06-20T01:57:53.058Z,5.30
2019-06-20T01:58:20.017Z,5.20
2019-06-20T01:59:20.030Z,5.50
2019-06-20T02:00:20.056Z,4.80
2019-06-20T02:00:35.696Z,5.77
2019-06-20T02:01:20.066Z,4.50
2019-06-20T02:02:20.086Z,4.90
2019-06-20T02:03:05.887Z,5.97
2019-06-20T02:03:20.104Z,5.00
2019-06-20T02:04:20.163Z,5.40
2019-06-20T02:05:20.148Z,4.50
2019-06-20T02:05:37.024Z,5.60
2019-06-20T02:06:20.180Z,4.90
2019-06-20T02:07:20.185Z,5.20
2019-06-20T02:08:06.024Z,5.50
2019-06-20T02:08:20.212Z,5.50
2019-06-20T02:09:20.226Z,4.60
2019-06-20T02:10:20.247Z,4.90
2019-06-20T02:10:34.918Z,5.50
2019-06-20T02:11:20.266Z,5.10
2019-06-20T02:12:20.285Z,5.10
2019-06-20T02:13:04.014Z,5.30
2019-06-20T02:13:20.301Z,5.00
2019-06-20T02:14:20.322Z,5.30
2019-06-20T02:15:20.353Z,4.90
2019-06-20T02:15:33.211Z,5.83
2019-06-20T02:16:20.360Z,5.20
2019-06-20T02:17:20.378Z,5.60
2019-06-20T02:18:02.107Z,7.17
2019-06-20T02:18:20.769Z,5.50
2019-06-20T02:19:20.417Z,4.70
2019-06-20T02:20:20.440Z,5.20
2019-06-20T02:20:31.951Z,5.80
2019-06-20T02:21:20.456Z,4.90
2019-06-20T02:22:20.477Z,5.60
2019-06-20T02:23:00.893Z,5.57
2019-06-20T02:23:20.502Z,5.60
2019-06-20T02:24:20.526Z,5.20
2019-06-20T02:25:20.532Z,4.90
2019-06-20T02:25:29.896Z,5.73
2019-06-20T02:26:20.559Z,4.70
2019-06-20T02:27:20.571Z,5.30
2019-06-20T02:27:58.901Z,6.00
2019-06-20T02:28:20.597Z,5.10
2019-06-20T02:29:20.610Z,5.00
2019-06-20T02:30:20.645Z,4.90
2019-06-20T02:30:27.876Z,6.07
2019-06-20T02:31:20.661Z,4.80
2019-06-20T02:32:20.705Z,5.20
2019-06-20T02:32:56.762Z,5.17
2019-06-20T02:33:20.807Z,4.80
2019-06-20T02:34:20.709Z,4.80
2019-06-20T02:35:20.734Z,5.70
2019-06-20T02:35:25.968Z,6.37
2019-06-20T02:36:20.839Z,5.20
2019-06-20T02:37:20.768Z,5.50
2019-06-20T02:37:54.970Z,6.00
2019-06-20T02:38:20.787Z,5.10
2019-06-20T02:39:20.821Z,4.70
2019-06-20T02:40:20.834Z,5.10
2019-06-20T02:40:23.963Z,6.10
2019-06-20T02:41:20.844Z,4.50
2019-06-20T02:42:20.864Z,4.70
2019-06-20T02:42:52.988Z,6.00
2019-06-20T02:43:20.890Z,5.30
2019-06-20T02:44:30.086Z,5.20
2019-06-20T02:45:20.923Z,5.20
2019-06-20T02:45:21.938Z,5.43
2019-06-20T02:46:20.943Z,5.00
2019-06-20T02:47:20.962Z,4.70
2019-06-20T02:47:50.931Z,6.13
2019-06-20T02:48:20.985Z,5.10
2019-06-20T02:49:21.024Z,5.00
2019-06-20T02:50:19.812Z,5.80
2019-06-20T02:50:21.023Z,5.00
2019-06-20T02:51:21.130Z,5.10
2019-06-20T02:52:21.059Z,5.10
2019-06-20T02:52:48.925Z,4.90
2019-06-20T02:53:21.081Z,5.20
2019-06-20T02:54:21.100Z,4.90
2019-06-20T02:55:17.813Z,6.00
2019-06-20T02:55:21.126Z,4.90
2019-06-20T02:56:21.146Z,5.10
2019-06-20T02:57:21.158Z,5.40
2019-06-20T02:57:46.906Z,5.27
2019-06-20T02:58:21.177Z,5.40
2019-06-20T02:59:21.193Z,4.60
2019-06-20T03:00:16.082Z,5.83
2019-06-20T03:00:21.220Z,5.60
2019-06-20T03:01:21.234Z,5.00
2019-06-20T03:02:21.250Z,5.70
2019-06-20T03:02:45.178Z,6.13
2019-06-20T03:03:21.285Z,5.10
2019-06-20T03:04:21.303Z,5.10
2019-06-20T03:05:14.174Z,6.10
2019-06-20T03:05:21.309Z,5.90
2019-06-20T03:06:21.332Z,5.10
2019-06-20T03:07:21.350Z,4.70
2019-06-20T03:07:43.085Z,6.40
2019-06-20T03:08:21.439Z,5.10
2019-06-20T03:09:21.391Z,5.40
2019-06-20T03:10:12.282Z,5.50
2019-06-20T03:10:21.408Z,5.40
2019-06-20T03:11:21.462Z,5.10
2019-06-20T03:12:21.450Z,6.00
2019-06-20T03:12:41.205Z,5.33
2019-06-20T03:13:21.467Z,4.90
2019-06-20T03:14:21.525Z,5.10
2019-06-20T03:15:10.017Z,6.40
2019-06-20T03:15:21.507Z,5.00
2019-06-20T03:16:21.523Z,5.30
2019-06-20T03:17:21.546Z,5.80
2019-06-20T03:17:39.031Z,6.20
2019-06-20T03:18:21.563Z,4.60
2019-06-20T03:19:21.584Z,4.70
2019-06-20T03:20:09.712Z,5.87
2019-06-20T03:20:21.606Z,5.00
2019-06-20T03:21:21.627Z,4.40
2019-06-20T03:22:21.643Z,4.60
2019-06-20T03:22:38.651Z,5.17
2019-06-20T03:23:21.658Z,5.20
2019-06-20T03:24:21.682Z,4.80
2019-06-20T03:25:07.634Z,5.57
2019-06-20T03:25:21.696Z,4.70
2019-06-20T03:26:21.818Z,5.00
2019-06-20T03:27:21.750Z,5.40
2019-06-20T03:27:36.637Z,5.17
2019-06-20T03:28:21.754Z,4.90
2019-06-20T03:29:21.771Z,5.10
2019-06-20T03:30:06.014Z,5.20
2019-06-20T03:30:21.927Z,5.50
2019-06-20T03:31:21.812Z,5.00
2019-06-20T03:32:21.835Z,4.70
2019-06-20T03:32:34.928Z,5.00
2019-06-20T03:33:21.860Z,4.50
2019-06-20T03:34:21.871Z,4.70
2019-06-20T03:35:03.919Z,4.87
2019-06-20T03:35:21.903Z,5.10
2019-06-20T03:36:21.913Z,4.30
2019-06-20T03:37:21.956Z,4.80
2019-06-20T03:37:33.014Z,5.40
2019-06-20T03:38:21.950Z,4.90
2019-06-20T03:39:21.968Z,4.90
2019-06-20T03:40:01.966Z,4.23
2019-06-20T03:40:21.990Z,4.40
2019-06-20T03:41:22.004Z,4.50
2019-06-20T03:42:22.024Z,4.50
2019-06-20T03:42:30.896Z,4.73
2019-06-20T03:43:22.043Z,5.00
2019-06-20T03:44:22.064Z,4.30
2019-06-20T03:45:02.518Z,5.13
2019-06-20T03:45:22.083Z,4.90
2019-06-20T03:46:22.101Z,4.70
2019-06-20T03:47:22.119Z,5.10
2019-06-20T03:47:30.361Z,4.70
2019-06-20T03:48:22.140Z,4.30
2019-06-20T03:49:22.161Z,4.40
2019-06-20T03:49:59.221Z,5.50
2019-06-20T03:50:22.182Z,4.50
2019-06-20T03:51:22.196Z,4.20
2019-06-20T03:52:22.216Z,5.00
2019-06-20T03:52:28.192Z,5.07
2019-06-20T03:53:22.235Z,4.30
2019-06-20T03:54:22.253Z,4.30
2019-06-20T03:54:57.213Z,5.23
2019-06-20T03:55:22.285Z,4.10
2019-06-20T03:56:22.297Z,4.60
2019-06-20T03:57:22.315Z,4.50
2019-06-20T03:57:26.087Z,5.33
2019-06-20T03:58:22.333Z,4.00
2019-06-20T03:59:22.362Z,3.80
2019-06-20T03:59:55.012Z,5.07
2019-06-20T04:00:22.377Z,4.70
2019-06-20T04:01:22.388Z,3.90
2019-06-20T04:02:22.409Z,4.50
2019-06-20T04:02:23.885Z,4.80
2019-06-20T04:03:22.437Z,5.00
2019-06-20T04:04:22.445Z,4.60
2019-06-20T04:04:52.957Z,5.03
2019-06-20T04:05:22.473Z,4.60
2019-06-20T04:06:22.486Z,4.60
2019-06-20T04:07:21.943Z,4.77
2019-06-20T04:07:22.510Z,3.90
2019-06-20T04:08:22.528Z,4.30
2019-06-20T04:09:22.542Z,4.20
2019-06-20T04:09:50.831Z,5.03
2019-06-20T04:10:22.563Z,4.40
2019-06-20T04:11:22.610Z,4.40
2019-06-20T04:12:20.336Z,4.63
2019-06-20T04:12:22.606Z,4.20
2019-06-20T04:13:22.781Z,4.00
2019-06-20T04:14:22.649Z,4.10
2019-06-20T04:14:49.551Z,5.17
2019-06-20T04:15:22.671Z,5.00
2019-06-20T04:16:22.696Z,4.40
2019-06-20T04:17:18.552Z,5.10
2019-06-20T04:17:22.699Z,4.40
2019-06-20T04:18:22.717Z,4.30
2019-06-20T04:19:22.736Z,4.20
2019-06-20T04:19:47.521Z,4.70
2019-06-20T04:20:22.767Z,4.10
2019-06-20T04:21:22.828Z,4.60
2019-06-20T04:22:16.417Z,5.33
2019-06-20T04:22:22.795Z,4.50
2019-06-20T04:23:22.853Z,5.10
2019-06-20T04:24:22.938Z,4.40
2019-06-20T04:24:45.310Z,5.03
2019-06-20T04:25:22.858Z,5.00
2019-06-20T04:26:22.879Z,5.00
2019-06-20T04:27:14.184Z,4.87
2019-06-20T04:27:22.895Z,4.50
2019-06-20T04:28:22.932Z,4.60
2019-06-20T04:29:22.951Z,4.60
2019-06-20T04:29:43.077Z,5.13
2019-06-20T04:30:22.964Z,4.90
2019-06-20T04:31:22.979Z,4.90
2019-06-20T04:32:12.005Z,4.90
2019-06-20T04:32:22.993Z,4.50
2019-06-20T04:33:23.011Z,4.40
2019-06-20T04:34:23.038Z,4.90
2019-06-20T04:34:41.061Z,5.33
2019-06-20T04:35:23.118Z,4.40
2019-06-20T04:36:23.089Z,4.40
2019-06-20T04:37:10.274Z,5.00
2019-06-20T04:37:23.104Z,4.30
2019-06-20T04:38:23.107Z,4.20
2019-06-20T04:39:23.156Z,4.60
2019-06-20T04:39:40.376Z,4.80
2019-06-20T04:40:23.147Z,4.20
2019-06-20T04:41:23.169Z,4.40
2019-06-20T04:42:09.369Z,5.33
2019-06-20T04:42:23.284Z,4.30
2019-06-20T04:43:23.207Z,4.50
2019-06-20T04:44:23.238Z,4.60
2019-06-20T04:44:38.241Z,4.90
2019-06-20T04:45:34.515Z,4.20
2019-06-20T04:46:23.279Z,4.40
2019-06-20T04:47:10.336Z,5.07
2019-06-20T04:47:23.285Z,4.70
2019-06-20T04:48:23.342Z,4.80
2019-06-20T04:49:23.362Z,4.20
2019-06-20T04:49:40.489Z,4.80
2019-06-20T04:50:23.348Z,4.10
2019-06-20T04:51:23.371Z,3.90
2019-06-20T04:52:09.614Z,5.37
2019-06-20T04:52:23.393Z,4.60
2019-06-20T04:53:23.423Z,4.30
2019-06-20T04:54:23.462Z,3.90
2019-06-20T04:54:38.582Z,4.73
2019-06-20T04:55:23.449Z,4.40
2019-06-20T04:56:23.573Z,4.40
2019-06-20T04:57:07.649Z,5.00
2019-06-20T04:57:23.488Z,4.50
2019-06-20T04:58:23.507Z,4.70
2019-06-20T04:59:23.536Z,4.70
2019-06-20T04:59:36.753Z,4.80
2019-06-20T05:00:23.589Z,4.40
2019-06-20T05:01:23.578Z,4.10
2019-06-20T05:02:08.276Z,4.93
2019-06-20T05:02:23.605Z,4.60
2019-06-20T05:03:23.740Z,4.70
2019-06-20T05:04:23.636Z,4.40
2019-06-20T05:04:39.042Z,5.17
2019-06-20T05:05:23.653Z,4.50
2019-06-20T05:06:23.714Z,4.60
2019-06-20T05:07:15.685Z,4.40
2019-06-20T05:07:23.873Z,4.00
2019-06-20T05:08:23.722Z,4.10
2019-06-20T05:09:23.785Z,3.70
2019-06-20T05:09:44.773Z,4.30
2019-06-20T05:10:23.760Z,4.70
2019-06-20T05:11:23.781Z,4.20
2019-06-20T05:12:13.888Z,4.70
2019-06-20T05:12:23.822Z,4.70
2019-06-20T05:13:23.823Z,4.30
2019-06-20T05:14:23.850Z,4.60
2019-06-20T05:14:42.720Z,4.67
2019-06-20T05:15:23.868Z,4.30
2019-06-20T05:16:23.893Z,4.30
2019-06-20T05:17:11.637Z,5.50
2019-06-20T05:17:24.067Z,4.80
2019-06-20T05:18:23.932Z,4.50
2019-06-20T05:19:23.954Z,4.60
2019-06-20T05:19:40.530Z,4.20
2019-06-20T05:20:23.971Z,4.60
2019-06-20T05:21:23.995Z,4.60
2019-06-20T05:22:09.435Z,5.10
2019-06-20T05:22:24.021Z,4.30
2019-06-20T05:23:24.049Z,4.90
2019-06-20T05:24:25.622Z,4.90
2019-06-20T05:24:38.535Z,4.43
2019-06-20T05:25:24.077Z,4.90
2019-06-20T05:26:24.115Z,5.10
2019-06-20T05:27:07.420Z,4.50
2019-06-20T05:27:24.122Z,4.70
2019-06-20T05:28:24.143Z,5.20
2019-06-20T05:29:24.168Z,4.70
2019-06-20T05:29:36.308Z,4.60
2019-06-20T05:30:24.198Z,4.80
2019-06-20T05:31:24.210Z,4.50
2019-06-20T05:32:05.181Z,4.93
2019-06-20T05:32:24.225Z,4.40
2019-06-20T05:33:24.249Z,4.80
2019-06-20T05:34:24.270Z,4.70
2019-06-20T05:34:34.070Z,5.33
2019-06-20T05:35:24.290Z,4.60
2019-06-20T05:36:24.319Z,4.80
2019-06-20T05:37:03.086Z,5.90
2019-06-20T05:37:24.339Z,4.40
2019-06-20T05:38:24.355Z,4.20
2019-06-20T05:39:24.376Z,4.50
2019-06-20T05:39:31.966Z,5.10
2019-06-20T05:40:24.414Z,4.70
2019-06-20T05:41:24.420Z,4.60
2019-06-20T05:42:00.915Z,5.07
2019-06-20T05:42:24.437Z,4.40
2019-06-20T05:43:24.498Z,4.50
2019-06-20T05:44:24.480Z,4.20
2019-06-20T05:44:29.829Z,4.83
2019-06-20T05:45:24.504Z,4.50
2019-06-20T05:46:24.530Z,4.50
2019-06-20T05:47:11.831Z,5.00
2019-06-20T05:47:24.543Z,4.60
2019-06-20T05:48:25.393Z,4.30
2019-06-20T05:49:24.596Z,4.50
2019-06-20T05:49:29.454Z,5.70
2019-06-20T05:50:24.609Z,4.70
2019-06-20T05:51:24.633Z,4.40
2019-06-20T05:51:58.578Z,4.87
2019-06-20T05:52:24.669Z,4.60
2019-06-20T05:53:24.682Z,4.50
2019-06-20T05:54:24.699Z,5.10
2019-06-20T05:54:28.470Z,4.70
2019-06-20T05:55:24.726Z,4.40
2019-06-20T05:56:24.749Z,4.30
2019-06-20T05:56:57.422Z,5.40
2019-06-20T05:57:24.762Z,4.60
2019-06-20T05:58:24.863Z,5.00
2019-06-20T05:59:25.563Z,4.60
2019-06-20T05:59:26.447Z,5.10
2019-06-20T06:00:24.827Z,4.60
2019-06-20T06:01:24.857Z,4.70
2019-06-20T06:01:56.419Z,5.27
2019-06-20T06:02:24.878Z,4.50
2019-06-20T06:03:24.892Z,4.60
2019-06-20T06:04:24.921Z,4.40
2019-06-20T06:04:26.404Z,4.60
2019-06-20T06:05:24.936Z,4.60
2019-06-20T06:06:24.955Z,4.10
2019-06-20T06:06:55.327Z,4.10
2019-06-20T06:07:24.987Z,4.00
2019-06-20T06:08:25.021Z,4.00
2019-06-20T06:09:24.751Z,4.37
2019-06-20T06:09:25.030Z,3.80
2019-06-20T06:10:25.050Z,3.90
2019-06-20T06:11:25.072Z,4.00
2019-06-20T06:11:53.709Z,4.00
2019-06-20T06:12:25.128Z,4.00
2019-06-20T06:13:25.117Z,4.00
2019-06-20T06:14:22.964Z,4.50
2019-06-20T06:14:25.137Z,4.00
2019-06-20T06:15:25.170Z,4.20
2019-06-20T06:16:28.202Z,3.90
2019-06-20T06:16:51.846Z,4.13
2019-06-20T06:17:25.217Z,4.00
2019-06-20T06:18:25.236Z,3.90
2019-06-20T06:19:20.750Z,4.23
2019-06-20T06:19:25.253Z,3.90
2019-06-20T06:20:25.275Z,4.20
2019-06-20T06:21:25.300Z,4.30
2019-06-20T06:21:49.626Z,4.23
2019-06-20T06:22:25.322Z,4.10
2019-06-20T06:23:25.344Z,3.70
2019-06-20T06:24:18.654Z,3.80
2019-06-20T06:24:25.389Z,3.70
2019-06-20T06:25:25.391Z,3.50
2019-06-20T06:26:25.414Z,3.40
2019-06-20T06:26:47.513Z,3.97
2019-06-20T06:27:25.432Z,3.70
2019-06-20T06:28:25.459Z,3.60
2019-06-20T06:29:16.729Z,4.23
2019-06-20T06:29:25.542Z,3.70
2019-06-20T06:30:25.498Z,3.70
2019-06-20T06:31:25.527Z,3.90
2019-06-20T06:31:45.598Z,3.80
2019-06-20T06:32:39.245Z,3.60
2019-06-20T06:33:25.563Z,3.70
2019-06-20T06:34:14.483Z,3.80
2019-06-20T06:34:25.589Z,3.90
2019-06-20T06:35:25.605Z,3.80
2019-06-20T06:36:25.643Z,4.50
2019-06-20T06:36:43.496Z,4.17
2019-06-20T06:37:25.651Z,3.90
2019-06-20T06:38:25.672Z,3.70
2019-06-20T06:39:12.480Z,4.60
2019-06-20T06:39:25.698Z,4.10
2019-06-20T06:40:25.722Z,3.80
2019-06-20T06:41:25.735Z,3.90
2019-06-20T06:41:41.364Z,4.50
2019-06-20T06:42:25.759Z,4.00
2019-06-20T06:43:25.792Z,4.00
2019-06-20T06:44:10.268Z,4.40
2019-06-20T06:44:25.802Z,3.90
2019-06-20T06:45:25.833Z,3.90
2019-06-20T06:46:42.561Z,3.50
2019-06-20T06:46:44.778Z,4.53
2019-06-20T06:47:25.874Z,3.40
2019-06-20T06:48:25.900Z,4.00
2019-06-20T06:49:09.787Z,4.23
2019-06-20T06:49:25.916Z,3.80
2019-06-20T06:50:25.941Z,4.20
2019-06-20T06:51:25.961Z,4.30
2019-06-20T06:51:38.781Z,4.90
2019-06-20T06:52:25.983Z,4.20
2019-06-20T06:53:26.028Z,4.40
2019-06-20T06:54:07.771Z,5.00
2019-06-20T06:54:26.032Z,4.70
2019-06-20T06:55:27.590Z,4.20
2019-06-20T06:56:26.078Z,4.50
2019-06-20T06:56:36.763Z,4.83
2019-06-20T06:57:26.100Z,4.00
2019-06-20T06:58:26.293Z,4.30
2019-06-20T06:59:05.743Z,5.57
2019-06-20T06:59:26.176Z,4.30
2019-06-20T07:00:26.203Z,4.50
2019-06-20T07:01:26.184Z,5.00
2019-06-20T07:01:34.645Z,4.90
2019-06-20T07:02:26.209Z,5.20
2019-06-20T07:03:26.243Z,5.20
2019-06-20T07:04:03.524Z,5.27
2019-06-20T07:04:26.249Z,4.80
2019-06-20T07:05:26.274Z,4.80
2019-06-20T07:06:26.761Z,5.00
2019-06-20T07:06:32.614Z,5.60
2019-06-20T07:07:26.327Z,5.10
2019-06-20T07:08:26.347Z,5.30
2019-06-20T07:09:01.520Z,5.13
2019-06-20T07:09:26.362Z,5.10
2019-06-20T07:10:26.386Z,5.10
2019-06-20T07:11:26.412Z,5.00
2019-06-20T07:11:30.391Z,5.57
2019-06-20T07:12:26.437Z,5.20
2019-06-20T07:13:26.461Z,5.00
2019-06-20T07:13:59.290Z,5.80
2019-06-20T07:14:26.480Z,5.00
2019-06-20T07:15:26.500Z,4.30
2019-06-20T07:16:26.543Z,4.40
2019-06-20T07:16:28.292Z,5.40
2019-06-20T07:17:26.544Z,5.00
2019-06-20T07:18:26.574Z,4.90
2019-06-20T07:18:57.172Z,5.13
2019-06-20T07:19:26.598Z,4.80
2019-06-20T07:20:26.619Z,4.50
2019-06-20T07:21:26.156Z,5.50
2019-06-20T07:21:26.636Z,4.40
2019-06-20T07:22:26.674Z,4.60
2019-06-20T07:23:26.736Z,4.90
2019-06-20T07:23:55.055Z,4.97
2019-06-20T07:24:26.712Z,4.40
2019-06-20T07:25:26.739Z,4.50
2019-06-20T07:26:23.936Z,4.93
2019-06-20T07:26:26.762Z,5.00
2019-06-20T07:27:26.833Z,4.60
2019-06-20T07:28:26.837Z,4.70
2019-06-20T07:28:52.792Z,5.60
2019-06-20T07:29:26.825Z,4.30
2019-06-20T07:30:26.845Z,4.60
2019-06-20T07:31:21.716Z,4.70
2019-06-20T07:31:26.874Z,4.90
2019-06-20T07:32:26.895Z,4.70
2019-06-20T07:33:26.935Z,4.80
2019-06-20T07:33:50.619Z,5.90
2019-06-20T07:34:26.955Z,5.00
2019-06-20T07:35:26.967Z,4.50
2019-06-20T07:36:19.606Z,5.60
2019-06-20T07:36:26.989Z,4.90
2019-06-20T07:37:27.168Z,5.60
2019-06-20T07:38:27.041Z,4.80
2019-06-20T07:38:48.582Z,5.47
2019-06-20T07:39:27.059Z,4.70
2019-06-20T07:40:27.082Z,4.90
2019-06-20T07:41:17.468Z,5.50
2019-06-20T07:41:27.191Z,4.60
2019-06-20T07:42:27.128Z,4.50
2019-06-20T07:43:27.149Z,4.90
2019-06-20T07:43:46.368Z,4.80
2019-06-20T07:44:27.172Z,5.10
2019-06-20T07:45:27.684Z,4.50
2019-06-20T07:46:15.359Z,4.73
2019-06-20T07:46:27.385Z,4.50
2019-06-20T07:47:27.246Z,4.40
2019-06-20T07:48:27.273Z,4.60
2019-06-20T07:48:44.268Z,4.57
2019-06-20T07:49:27.289Z,4.10
2019-06-20T07:50:27.317Z,4.40
2019-06-20T07:51:13.143Z,4.53
2019-06-20T07:51:27.353Z,4.50
2019-06-20T07:52:27.395Z,4.40
2019-06-20T07:53:27.394Z,4.10
2019-06-20T07:53:42.500Z,4.93
2019-06-20T07:54:27.427Z,3.90
2019-06-20T07:55:27.442Z,4.00
2019-06-20T07:56:11.448Z,4.03
2019-06-20T07:56:27.462Z,3.80
2019-06-20T07:57:27.482Z,3.70
2019-06-20T07:58:27.511Z,4.30
2019-06-20T07:58:40.319Z,4.57
2019-06-20T07:59:27.523Z,4.40
2019-06-20T08:00:27.576Z,4.20
2019-06-20T08:01:09.512Z,4.10
2019-06-20T08:01:27.575Z,4.00
2019-06-20T08:02:27.646Z,4.00
2019-06-20T08:03:27.964Z,3.60
2019-06-20T08:03:38.657Z,4.10
2019-06-20T08:04:27.647Z,3.70
2019-06-20T08:05:27.679Z,3.30
2019-06-20T08:06:07.604Z,3.93
2019-06-20T08:06:27.699Z,3.60
2019-06-20T08:07:27.725Z,3.50
2019-06-20T08:08:27.749Z,3.80
2019-06-20T08:08:36.595Z,4.43
2019-06-20T08:09:43.826Z,4.00
2019-06-20T08:10:27.792Z,4.00
2019-06-20T08:11:07.483Z,4.10
2019-06-20T08:11:27.826Z,3.80
2019-06-20T08:12:27.842Z,3.80
2019-06-20T08:13:27.872Z,3.90
2019-06-20T08:13:36.324Z,4.00
2019-06-20T08:14:27.900Z,3.40
2019-06-20T08:15:27.917Z,4.00
2019-06-20T08:16:05.229Z,4.77
2019-06-20T08:16:27.941Z,3.80
2019-06-20T08:17:35.184Z,4.10
2019-06-20T08:18:27.982Z,4.30
2019-06-20T08:18:34.102Z,5.43
2019-06-20T08:19:28.009Z,4.50
2019-06-20T08:20:28.029Z,4.10
2019-06-20T08:21:03.084Z,4.90
2019-06-20T08:21:28.049Z,4.30
2019-06-20T08:22:28.078Z,4.60
2019-06-20T08:23:28.103Z,4.60
2019-06-20T08:23:31.922Z,5.40
2019-06-20T08:24:28.122Z,4.30
2019-06-20T08:25:28.162Z,4.60
2019-06-20T08:26:00.893Z,5.20
2019-06-20T08:26:28.169Z,4.90
2019-06-20T08:27:28.193Z,5.10
2019-06-20T08:28:28.221Z,5.10
2019-06-20T08:28:29.859Z,5.57
2019-06-20T08:29:28.239Z,5.10
2019-06-20T08:30:28.262Z,5.20
2019-06-20T08:30:59.056Z,5.83
2019-06-20T08:31:28.292Z,5.20
2019-06-20T08:32:28.315Z,4.80
2019-06-20T08:33:28.463Z,5.20
2019-06-20T08:33:29.322Z,5.87
2019-06-20T08:34:28.352Z,5.20
2019-06-20T08:35:28.374Z,5.40
2019-06-20T08:35:58.907Z,7.03
2019-06-20T08:36:28.396Z,5.60
2019-06-20T08:37:28.423Z,5.70
2019-06-20T08:38:28.445Z,5.40
2019-06-20T08:38:28.807Z,5.60
2019-06-20T08:39:29.557Z,5.40
2019-06-20T08:40:28.489Z,4.80
2019-06-20T08:40:58.396Z,6.40
2019-06-20T08:41:28.515Z,5.30
2019-06-20T08:42:28.534Z,5.90
2019-06-20T08:43:27.600Z,5.93
2019-06-20T08:43:28.552Z,5.50
2019-06-20T08:44:28.576Z,5.40
2019-06-20T08:45:28.595Z,5.20
2019-06-20T08:45:57.772Z,5.73
2019-06-20T08:46:28.623Z,5.70
2019-06-20T08:47:28.643Z,5.10
2019-06-20T08:48:26.915Z,5.80
2019-06-20T08:48:28.713Z,5.70
2019-06-20T08:49:28.693Z,5.30
2019-06-20T08:50:28.713Z,5.10
2019-06-20T08:50:56.869Z,6.43
2019-06-20T08:51:28.740Z,5.50
2019-06-20T08:52:28.759Z,5.50
2019-06-20T08:53:26.361Z,5.73
2019-06-20T08:53:28.781Z,5.70
2019-06-20T08:54:28.812Z,5.00
2019-06-20T08:55:28.829Z,5.50
2019-06-20T08:55:56.285Z,5.80
2019-06-20T08:56:28.868Z,5.00
2019-06-20T08:57:28.889Z,5.20
2019-06-20T08:58:25.753Z,5.67
2019-06-20T08:58:28.895Z,5.40
2019-06-20T08:59:28.921Z,5.20
2019-06-20T09:00:28.994Z,5.10
2019-06-20T09:00:55.978Z,7.50
2019-06-20T09:01:29.033Z,5.60
2019-06-20T09:02:29.007Z,7.00
2019-06-20T09:03:25.272Z,6.90
2019-06-20T09:03:29.015Z,6.70
2019-06-20T09:04:29.034Z,6.70
2019-06-20T09:05:30.691Z,6.60
2019-06-20T09:05:55.485Z,6.93
2019-06-20T09:06:29.085Z,6.90
2019-06-20T09:07:29.105Z,6.90
2019-06-20T09:08:24.689Z,7.10
2019-06-20T09:08:29.135Z,7.00
2019-06-20T09:09:29.187Z,6.40
2019-06-20T09:10:29.176Z,7.10
2019-06-20T09:10:54.355Z,6.73
2019-06-20T09:11:29.198Z,6.70
2019-06-20T09:12:29.221Z,6.70
2019-06-20T09:13:23.409Z,7.30
2019-06-20T09:13:29.246Z,6.90
2019-06-20T09:14:29.269Z,6.70
2019-06-20T09:15:29.292Z,7.10
2019-06-20T09:15:53.416Z,8.10
2019-06-20T09:16:29.315Z,6.80
2019-06-20T09:17:29.333Z,7.50
2019-06-20T09:18:23.053Z,8.03
2019-06-20T09:18:29.370Z,7.60
2019-06-20T09:19:29.383Z,7.50
2019-06-20T09:20:29.406Z,7.20
2019-06-20T09:20:52.865Z,10.00
2019-06-20T09:21:29.466Z,8.60
2019-06-20T09:22:29.457Z,9.10
2019-06-20T09:23:22.538Z,9.33
2019-06-20T09:23:29.476Z,8.60
2019-06-20T09:24:29.507Z,8.80
2019-06-20T09:25:29.529Z,9.10
2019-06-20T09:25:52.344Z,10.27
2019-06-20T09:26:29.577Z,8.90
2019-06-20T09:27:29.598Z,9.00
2019-06-20T09:28:21.233Z,8.80
2019-06-20T09:28:29.597Z,8.20
2019-06-20T09:29:41.382Z,9.00